Time;durP1;ratioP1;P1;durP2;ratioP2;P2;SDS_P1;SDS_P2;PMS_P1;PMS_P2;Temp;Humidity;BMP_temperature;BMP_pressure;BME280_temperature;BME280_humidity;BME280_pressure;Samples;Min_cycle;Max_cycle;Signal;HPM_P1;HPM_P2
2023/08/11 00:00:45;;;;;;;3.67;1.43;;;11.80;99.90;11.00;100941;;;;573710;242;24125;-86
2023/08/11 00:03:14;;;;;;;2.53;1.00;;;11.70;99.90;11.00;100934;;;;571026;250;24252;-85
2023/08/11 00:05:45;;;;;;;7.90;1.70;;;11.80;99.90;11.10;100945;;;;572421;245;24042;-86
2023/08/11 00:08:13;;;;;;;8.03;1.80;;;11.80;99.90;11.10;100941;;;;564517;250;24214;-82
2023/08/11 00:10:39;;;;;;;1.50;1.30;;;11.80;99.90;11.10;100941;;;;574598;243;24046;-85
2023/08/11 00:13:12;;;;;;;3.80;1.20;;;11.90;99.90;11.20;100933;;;;573970;243;24147;-86
2023/08/11 00:15:39;;;;;;;2.60;1.50;;;12.00;99.90;11.30;100939;;;;560377;252;24143;-86
2023/08/11 00:18:04;;;;;;;3.10;1.17;;;12.00;99.90;11.30;100944;;;;567181;246;24077;-85
2023/08/11 00:20:32;;;;;;;2.77;1.50;;;12.10;99.90;11.40;100930;;;;561622;252;24126;-84
2023/08/11 00:23:03;;;;;;;5.03;1.70;;;12.20;99.90;11.50;100940;;;;576039;246;35265;-84
2023/08/11 00:25:28;;;;;;;2.13;1.30;;;12.20;99.90;11.50;100939;;;;586091;240;24114;-82
2023/08/11 00:27:56;;;;;;;1.83;1.10;;;12.30;99.90;11.60;100948;;;;575902;243;24071;-79
2023/08/11 00:30:24;;;;;;;3.50;1.47;;;12.40;99.90;11.70;100947;;;;571072;246;24145;-78
2023/08/11 00:32:52;;;;;;;4.57;1.10;;;12.40;99.90;11.70;100947;;;;581577;244;24084;-78
2023/08/11 00:35:21;;;;;;;1.47;1.30;;;12.50;99.90;11.80;100951;;;;575130;245;24114;-79
2023/08/11 00:37:49;;;;;;;5.37;1.67;;;12.60;99.90;11.80;100951;;;;574135;244;24067;-78
2023/08/11 00:40:18;;;;;;;2.63;1.27;;;12.60;99.90;11.90;100954;;;;578957;241;24043;-78
2023/08/11 00:42:49;;;;;;;2.83;1.20;;;12.70;99.90;11.90;100947;;;;571251;245;24121;-78
2023/08/11 00:45:14;;;;;;;8.07;1.47;;;12.70;99.90;12.00;100955;;;;573229;247;24100;-79
2023/08/11 00:47:42;;;;;;;5.53;0.87;;;12.80;99.90;12.10;100954;;;;572943;247;24094;-80
2023/08/11 00:50:13;;;;;;;3.73;0.97;;;12.80;99.90;12.10;100953;;;;573598;247;24083;-80
2023/08/11 00:52:43;;;;;;;3.53;1.37;;;12.80;99.90;12.20;100957;;;;583564;244;24108;-81
2023/08/11 00:55:09;;;;;;;3.93;1.00;;;12.90;99.90;12.20;100958;;;;574633;246;24083;-80
2023/08/11 00:57:37;;;;;;;3.50;1.33;;;13.00;99.90;12.20;100954;;;;583314;242;24091;-81
2023/08/11 01:00:15;;;;;;;4.13;1.20;;;13.00;99.90;12.30;100956;;;;574104;246;24096;-78
2023/08/11 01:02:32;;;;;;;2.83;1.13;;;13.00;99.90;12.30;100950;;;;572437;246;24197;-79
2023/08/11 01:05:00;;;;;;;2.20;1.13;;;13.10;99.90;12.40;100953;;;;582994;246;24115;-81
2023/08/11 01:07:28;;;;;;;2.00;1.20;;;13.10;99.90;12.40;100951;;;;574050;247;24179;-81
2023/08/11 01:10:03;;;;;;;1.00;0.90;;;13.10;99.90;12.40;100951;;;;573279;247;24101;-80
2023/08/11 01:12:33;;;;;;;2.93;0.77;;;13.20;99.90;12.50;100961;;;;572861;247;24121;-79
2023/08/11 01:15:29;;;;;;;3.50;1.00;;;13.20;99.90;12.50;100955;;;;572459;247;24082;-78
2023/08/11 01:18:00;;;;;;;1.13;0.90;;;13.20;99.90;12.50;100948;;;;573030;247;24134;-79
2023/08/11 01:20:27;;;;;;;1.60;0.70;;;13.30;99.90;12.60;100947;;;;572217;247;24091;-82
2023/08/11 01:22:52;;;;;;;2.47;1.10;;;13.30;99.90;12.60;100950;;;;582930;244;24130;-83
2023/08/11 01:25:20;;;;;;;3.93;0.90;;;13.30;99.90;12.60;100939;;;;574152;247;24088;-82
2023/08/11 01:27:56;;;;;;;3.97;1.47;;;13.10;99.90;12.60;100939;;;;569399;247;37606;-81
2023/08/11 01:30:28;;;;;;;2.62;1.25;;;13.30;99.90;12.60;100951;;;;578252;244;35282;-79
2023/08/11 01:32:55;;;;;;;4.90;1.20;;;13.30;99.90;12.60;100940;;;;573576;247;25197;-79
2023/08/11 01:35:20;;;;;;;3.27;1.17;;;13.30;99.90;12.60;100949;;;;571125;248;24166;-78
2023/08/11 01:37:52;;;;;;;2.07;1.20;;;13.30;99.90;12.70;100940;;;;581041;245;24179;-79
2023/08/11 01:40:16;;;;;;;1.10;1.00;;;13.40;99.90;12.70;100944;;;;573691;247;24113;-80
2023/08/11 01:42:45;;;;;;;3.57;0.97;;;13.40;99.90;12.70;100945;;;;572682;247;24080;-81
2023/08/11 01:45:15;;;;;;;2.93;1.20;;;13.40;99.90;12.70;100934;;;;572671;247;24107;-80
2023/08/11 01:47:41;;;;;;;1.53;1.40;;;13.40;99.90;12.70;100932;;;;573968;247;24076;-79
2023/08/11 01:50:09;;;;;;;3.17;1.50;;;13.40;99.90;12.70;100929;;;;573218;247;24106;-80
2023/08/11 01:52:37;;;;;;;2.57;1.00;;;13.40;99.90;12.70;100929;;;;573701;247;24172;-79
2023/08/11 01:55:05;;;;;;;7.20;1.50;;;13.40;99.90;12.70;100922;;;;573514;247;24106;-78
2023/08/11 01:57:33;;;;;;;4.67;1.13;;;13.40;99.90;12.70;100928;;;;573745;247;24080;-79
2023/08/11 02:00:05;;;;;;;1.73;1.33;;;13.40;99.90;12.70;100918;;;;573368;247;24114;-78
2023/08/11 02:02:32;;;;;;;5.63;1.37;;;13.30;99.90;12.70;100928;;;;572854;247;24089;-83
2023/08/11 02:04:58;;;;;;;3.50;1.50;;;13.40;99.90;12.60;100928;;;;583345;244;24140;-78
2023/08/11 02:07:29;;;;;;;4.33;1.63;;;13.30;99.90;12.60;100922;;;;574211;246;24142;-80
2023/08/11 02:09:54;;;;;;;2.20;1.53;;;13.30;99.90;12.60;100917;;;;574014;247;24180;-82
2023/08/11 02:12:22;;;;;;;1.53;1.30;;;13.30;99.90;12.60;100917;;;;574025;247;24165;-80
2023/08/11 02:14:49;;;;;;;2.37;1.23;;;13.30;99.90;12.60;100915;;;;573768;247;24075;-81
2023/08/11 02:17:17;;;;;;;7.57;1.77;;;13.30;99.90;12.60;100924;;;;573778;247;24132;-80
2023/08/11 02:19:45;;;;;;;7.53;1.87;;;13.30;99.90;12.50;100925;;;;573735;247;24113;-79
2023/08/11 02:22:13;;;;;;;7.73;1.53;;;13.20;99.90;12.50;100929;;;;574481;247;24135;-78
2023/08/11 02:24:41;;;;;;;2.63;1.23;;;13.20;99.90;12.50;100924;;;;574475;246;24086;-82
2023/08/11 02:27:09;;;;;;;3.83;1.63;;;13.20;99.90;12.50;100932;;;;574132;247;24082;-86
2023/08/11 02:29:40;;;;;;;11.07;1.87;;;13.20;99.90;12.50;100927;;;;573965;246;24118;-80
2023/08/11 02:32:05;;;;;;;6.53;1.60;;;13.20;99.90;12.50;100931;;;;573640;247;24126;-79
2023/08/11 02:34:33;;;;;;;7.47;1.60;;;13.20;99.90;12.50;100927;;;;582771;246;24140;-79
2023/08/11 02:37:01;;;;;;;1.30;1.20;;;13.20;99.90;12.50;100932;;;;573977;247;24078;-77
2023/08/11 02:39:29;;;;;;;1.83;1.20;;;13.20;99.90;12.50;100928;;;;573543;247;24083;-80
2023/08/11 02:41:57;;;;;;;4.40;1.67;;;13.20;99.90;12.50;100928;;;;573573;247;23098;-79
2023/08/11 02:44:25;;;;;;;4.53;1.40;;;13.10;99.90;12.50;100929;;;;573334;247;24119;-80
2023/08/11 02:46:53;;;;;;;1.73;1.30;;;13.20;99.90;12.50;100932;;;;573536;247;24072;-79
2023/08/11 02:49:22;;;;;;;5.23;1.50;;;13.20;99.90;12.50;100929;;;;573565;247;24064;-80
2023/08/11 02:51:49;;;;;;;4.37;1.07;;;13.20;99.90;12.50;100928;;;;573153;247;24091;-79
2023/08/11 02:54:17;;;;;;;1.83;1.33;;;13.20;99.90;12.50;100937;;;;573520;247;24123;-81
2023/08/11 02:56:51;;;;;;;1.20;1.10;;;13.20;99.90;12.50;100928;;;;573513;247;24096;-79
2023/08/11 02:59:16;;;;;;;2.90;1.30;;;13.20;99.90;12.50;100931;;;;572976;246;24098;-80
2023/08/11 03:01:44;;;;;;;5.03;1.00;;;13.20;99.90;12.40;100923;;;;573160;247;24111;-79
2023/08/11 03:04:11;;;;;;;5.27;1.43;;;13.10;99.90;12.40;100929;;;;572998;247;24131;-80
2023/08/11 03:06:40;;;;;;;2.27;1.63;;;13.10;99.90;12.40;100927;;;;573138;247;24094;-79
2023/08/11 03:09:09;;;;;;;1.00;1.00;;;13.00;99.90;12.30;100927;;;;573118;247;24093;-79
2023/08/11 03:11:37;;;;;;;1.43;1.27;;;13.00;99.90;12.30;100922;;;;573185;247;24099;-79
2023/08/11 03:14:05;;;;;;;4.90;1.10;;;13.00;99.90;12.30;100927;;;;572968;247;24144;-79
2023/08/11 03:16:36;;;;;;;2.57;1.27;;;13.00;99.90;12.30;100931;;;;573423;246;24081;-78
2023/08/11 03:19:02;;;;;;;2.50;1.30;;;13.00;99.90;12.30;100931;;;;582614;242;24091;-81
2023/08/11 03:21:29;;;;;;;1.87;1.20;;;13.00;99.90;12.30;100920;;;;573850;247;24094;-79
2023/08/11 03:23:57;;;;;;;3.20;1.33;;;13.00;99.90;12.30;100922;;;;573827;247;24098;-79
2023/08/11 03:26:25;;;;;;;2.43;1.10;;;13.00;99.90;12.30;100916;;;;574044;247;24167;-80
2023/08/11 03:28:57;;;;;;;3.50;1.27;;;13.00;99.90;12.30;100913;;;;574131;247;24117;-79
2023/08/11 03:31:25;;;;;;;1.93;1.40;;;12.90;99.90;12.20;100911;;;;573838;247;24184;-80
2023/08/11 03:33:50;;;;;;;5.07;2.17;;;12.90;99.90;12.20;100915;;;;573537;247;24097;-79
2023/08/11 03:36:19;;;;;;;5.93;1.97;;;12.90;99.90;12.20;100911;;;;582578;246;25163;-80
2023/08/11 03:38:46;;;;;;;2.20;1.20;;;12.90;99.90;12.20;100923;;;;573717;247;24114;-82
2023/08/11 03:41:14;;;;;;;2.80;1.57;;;12.90;99.90;12.10;100921;;;;573840;247;24096;-79
2023/08/11 03:43:42;;;;;;;4.13;1.40;;;12.80;99.90;12.10;100932;;;;573825;247;24088;-83
2023/08/11 03:46:15;;;;;;;7.93;1.13;;;12.70;99.90;12.00;100929;;;;573891;247;24157;-85
2023/08/11 03:48:39;;;;;;;3.07;1.30;;;12.70;99.90;12.00;100931;;;;573536;247;24110;-84
2023/08/11 03:51:07;;;;;;;3.60;1.67;;;12.70;99.90;11.90;100939;;;;573754;247;24097;-80
2023/08/11 03:53:36;;;;;;;3.13;1.33;;;12.60;99.90;11.90;100937;;;;573239;247;24102;-81
2023/08/11 03:56:07;;;;;;;1.27;1.03;;;12.60;99.90;12.00;100941;;;;573603;247;24099;-78
2023/08/11 03:58:32;;;;;;;1.23;1.17;;;12.60;99.90;12.10;100946;;;;572999;247;24243;-79
2023/08/11 04:01:00;;;;;;;3.13;1.00;;;12.70;99.90;12.10;100940;;;;573170;247;24079;-80
2023/08/11 04:03:30;;;;;;;2.17;1.40;;;12.80;99.90;12.20;100932;;;;573292;247;24087;-80
2023/08/11 04:05:58;;;;;;;2.43;1.30;;;12.90;99.90;12.30;100945;;;;573129;247;24149;-81
2023/08/11 04:08:26;;;;;;;4.17;1.50;;;13.00;99.90;12.50;100940;;;;573361;247;24111;-80
2023/08/11 04:10:51;;;;;;;4.17;1.47;;;13.10;99.90;12.60;100937;;;;571533;247;24155;-80
2023/08/11 04:13:22;;;;;;;3.60;1.03;;;13.20;99.90;12.70;100949;;;;573379;247;24088;-79
2023/08/11 04:15:50;;;;;;;2.60;1.10;;;13.40;99.90;12.90;100941;;;;573443;247;24140;-79
2023/08/11 04:18:21;;;;;;;9.67;1.80;;;13.50;99.90;13.10;100950;;;;573160;247;24095;-77
2023/08/11 04:20:48;;;;;;;2.83;1.53;;;13.70;99.90;13.30;100954;;;;573185;247;24092;-81
2023/08/11 04:23:16;;;;;;;1.77;1.60;;;13.80;99.90;13.50;100941;;;;573145;247;24126;-81
2023/08/11 04:25:44;;;;;;;3.07;1.67;;;14.10;99.90;13.90;100947;;;;573342;247;24101;-79
2023/08/11 04:28:12;;;;;;;3.80;2.03;;;14.50;99.90;14.10;100948;;;;575213;246;24122;-81
2023/08/11 04:30:41;;;;;;;7.23;2.13;;;15.10;99.90;14.40;100951;;;;574742;247;24085;-78
2023/08/11 04:33:09;;;;;;;5.87;1.63;;;15.00;99.90;14.60;100941;;;;574925;247;24109;-80
2023/08/11 04:35:38;;;;;;;24.57;2.67;;;15.30;99.90;15.20;100947;;;;574828;247;24190;-79
2023/08/11 04:38:05;;;;;;;13.07;2.20;;;15.90;99.90;16.10;100953;;;;574034;247;24157;-80
2023/08/11 04:40:33;;;;;;;3.73;1.93;;;16.70;99.90;17.40;100950;;;;574306;247;24086;-80
2023/08/11 04:43:00;;;;;;;11.90;2.37;;;18.10;99.90;18.80;100960;;;;572946;247;24185;-81
2023/08/11 04:45:28;;;;;;;6.30;3.03;;;19.50;99.90;19.70;100961;;;;582838;246;24117;-81
2023/08/11 04:47:56;;;;;;;15.17;2.87;;;20.60;99.90;19.90;100962;;;;582180;243;24153;-84
2023/08/11 04:50:24;;;;;;;20.47;3.60;;;20.90;99.90;19.20;100953;;;;574074;247;24170;-79
2023/08/11 04:52:52;;;;;;;33.55;4.22;;;20.40;99.90;18.70;100961;;;;568846;247;35316;-81
2023/08/11 04:55:20;;;;;;;11.27;2.90;;;19.80;99.90;18.70;100955;;;;573496;247;23106;-79
2023/08/11 04:57:48;;;;;;;11.67;2.63;;;19.60;99.90;19.10;100958;;;;573757;247;23158;-80
2023/08/11 05:00:20;;;;;;;10.40;2.47;;;20.00;99.90;18.90;100963;;;;573390;247;24153;-79
2023/08/11 05:02:47;;;;;;;8.70;2.63;;;19.80;99.90;20.10;100964;;;;572877;247;23135;-79
2023/08/11 05:05:15;;;;;;;18.60;2.17;;;22.40;99.90;21.80;100966;;;;573092;247;24080;-80
2023/08/11 05:07:44;;;;;;;4.87;2.00;;;24.10;99.90;23.50;100966;;;;573286;247;24148;-80
2023/08/11 05:10:15;;;;;;;15.47;2.10;;;24.00;99.90;25.10;100970;;;;573143;247;24115;-78
2023/08/11 05:12:44;;;;;;;11.63;2.20;;;25.80;99.90;26.40;100964;;;;572937;247;23116;-80
2023/08/11 05:15:08;;;;;;;8.90;2.50;;;27.30;95.60;27.80;100965;;;;573073;247;24168;-80
2023/08/11 05:17:35;;;;;;;15.93;2.43;;;28.60;91.50;29.20;100969;;;;582043;247;23144;-81
2023/08/11 05:20:07;;;;;;;6.30;1.70;;;30.10;84.20;30.60;100975;;;;573459;243;23303;-81
2023/08/11 05:22:31;;;;;;;6.00;1.95;;;31.40;76.60;31.80;100977;;;;573270;247;23132;-80
2023/08/11 05:25:03;;;;;;;9.05;2.45;;;32.70;70.50;32.80;100972;;;;568422;247;35285;-82
2023/08/11 05:27:27;;;;;;;6.25;1.92;;;33.70;63.30;33.60;100976;;;;574049;247;23139;-79
2023/08/11 05:29:56;;;;;;;3.42;1.67;;;35.30;57.10;34.50;100980;;;;574026;247;24161;-81
2023/08/11 05:32:24;;;;;;;7.30;1.75;;;35.30;57.10;35.30;100979;;;;573775;247;23159;-80
2023/08/11 05:34:55;;;;;;;8.13;2.40;;;36.20;54.50;36.10;100984;;;;574144;247;24128;-81
2023/08/11 05:37:21;;;;;;;7.32;2.03;;;37.00;52.70;37.00;100985;;;;582188;246;23115;-83
2023/08/11 05:39:47;;;;;;;5.65;1.70;;;37.70;49.90;37.40;100988;;;;575880;246;23092;-81
2023/08/11 05:42:15;;;;;;;6.35;2.10;;;38.20;48.90;37.90;100991;;;;575469;246;23080;-80
2023/08/11 05:44:43;;;;;;;5.87;2.45;;;38.70;47.90;38.40;100998;;;;575627;247;23055;-79
2023/08/11 05:47:12;;;;;;;3.37;1.73;;;39.20;46.50;38.80;100996;;;;575589;247;24112;-81
2023/08/11 05:49:40;;;;;;;8.75;2.12;;;40.00;44.10;39.30;101010;;;;575058;247;23478;-81
2023/08/11 05:52:08;;;;;;;6.22;1.90;;;39.90;44.00;39.60;101003;;;;574455;247;24124;-85
2023/08/11 05:54:36;;;;;;;4.18;1.65;;;40.20;42.30;39.70;101005;;;;574547;247;23100;-84
2023/08/11 05:57:04;;;;;;;4.03;1.98;;;40.50;42.50;40.20;101011;;;;573833;247;23127;-85
2023/08/11 05:59:32;;;;;;;4.05;1.65;;;40.80;41.50;40.50;101013;;;;582679;246;23105;-83
2023/08/11 06:01:59;;;;;;;5.82;2.00;;;41.20;41.20;40.10;101016;;;;574025;247;23169;-82
2023/08/11 06:04:27;;;;;;;3.75;1.65;;;41.00;41.00;40.10;101021;;;;573995;247;23178;-81
2023/08/11 06:06:55;;;;;;;4.37;1.90;;;41.00;41.40;40.90;101025;;;;575619;245;23091;-82
2023/08/11 06:09:26;;;;;;;4.90;2.00;;;41.40;41.10;41.40;101025;;;;575319;245;23130;-81
2023/08/11 06:11:52;;;;;;;3.40;1.73;;;42.40;40.40;41.90;101031;;;;575153;245;23116;-81
2023/08/11 06:14:20;;;;;;;3.20;1.70;;;42.30;40.40;42.30;101030;;;;575229;245;23155;-81
2023/08/11 06:16:51;;;;;;;4.40;1.80;;;42.80;39.80;42.20;101024;;;;574474;245;23143;-81
2023/08/11 06:19:16;;;;;;;8.15;1.67;;;42.80;39.40;42.00;101036;;;;573228;247;24163;-81
2023/08/11 06:21:45;;;;;;;2.33;1.37;;;42.60;39.40;41.40;101036;;;;573530;247;23103;-81
2023/08/11 06:24:15;;;;;;;5.22;1.90;;;42.10;38.90;40.40;101042;;;;573467;247;23093;-81
2023/08/11 06:26:40;;;;;;;3.80;1.67;;;41.30;38.90;39.10;101046;;;;573367;247;23145;-81
2023/08/11 06:29:08;;;;;;;2.37;1.77;;;40.10;40.00;37.90;101038;;;;572543;247;23113;-82
2023/08/11 06:31:36;;;;;;;4.70;2.10;;;39.00;41.60;38.20;101048;;;;573587;247;23140;-83
2023/08/11 06:34:03;;;;;;;2.10;1.80;;;38.80;42.50;39.60;101050;;;;573724;247;23146;-82
2023/08/11 06:36:31;;;;;;;2.47;1.35;;;39.80;41.80;39.80;101049;;;;573692;247;23113;-85
2023/08/11 06:39:02;;;;;;;2.35;1.60;;;40.20;40.20;40.50;101053;;;;573756;247;24141;-82
2023/08/11 06:41:28;;;;;;;3.03;1.45;;;40.70;40.10;40.60;101046;;;;573479;247;23105;-82
2023/08/11 06:43:56;;;;;;;3.37;1.55;;;40.70;40.00;40.10;101049;;;;573697;247;23119;-83
2023/08/11 06:46:25;;;;;;;2.10;1.60;;;40.50;40.10;39.80;101047;;;;573542;247;23126;-83
2023/08/11 06:48:53;;;;;;;3.15;1.62;;;40.30;40.50;39.60;101053;;;;573594;247;23092;-82
2023/08/11 06:51:21;;;;;;;5.37;1.83;;;40.30;40.70;38.70;101046;;;;570145;246;35242;-83
2023/08/11 06:53:49;;;;;;;6.25;1.87;;;39.60;41.00;37.40;101052;;;;574584;246;23158;-82
2023/08/11 06:56:17;;;;;;;6.50;1.60;;;38.60;41.60;36.30;101052;;;;574390;247;23095;-83
2023/08/11 06:58:45;;;;;;;2.08;1.48;;;37.40;42.10;35.30;101051;;;;573937;247;23123;-83
2023/08/11 07:01:17;;;;;;;3.78;1.40;;;36.40;42.90;34.60;101051;;;;570294;246;24173;-80
2023/08/11 07:03:44;;;;;;;3.03;1.20;;;35.50;43.60;33.90;101059;;;;565788;247;23176;-82
2023/08/11 07:06:09;;;;;;;5.68;1.30;;;34.70;44.70;33.60;101059;;;;580337;245;23107;-79
2023/08/11 07:08:37;;;;;;;4.65;1.60;;;34.10;46.10;34.20;101049;;;;566465;247;35301;-79
2023/08/11 07:11:09;;;;;;;5.80;1.48;;;35.70;45.60;35.80;101054;;;;571581;247;23109;-79
2023/08/11 07:13:36;;;;;;;5.35;1.50;;;35.60;45.50;37.90;101057;;;;571538;246;23113;-81
2023/08/11 07:16:01;;;;;;;3.60;1.67;;;37.60;43.60;39.80;101053;;;;570883;247;23098;-80
2023/08/11 07:18:29;;;;;;;4.00;1.52;;;39.50;41.20;41.40;101055;;;;571522;247;23097;-82
2023/08/11 07:21:00;;;;;;;2.78;1.30;;;41.10;39.60;42.40;101056;;;;571382;246;23090;-81
2023/08/11 07:23:25;;;;;;;6.35;1.98;;;42.40;38.80;43.70;101054;;;;570839;247;23094;-80
2023/08/11 07:25:54;;;;;;;5.78;1.80;;;44.20;36.60;43.80;101059;;;;571233;248;23082;-82
2023/08/11 07:28:22;;;;;;;1.98;1.45;;;43.40;36.80;42.50;101066;;;;571513;248;23139;-81
2023/08/11 07:30:51;;;;;;;3.62;1.60;;;43.30;36.70;41.50;101062;;;;571629;248;23148;-80
2023/08/11 07:33:18;;;;;;;1.50;1.25;;;42.40;36.90;41.00;101056;;;;571592;247;24148;-81
2023/08/11 07:35:46;;;;;;;3.08;1.75;;;41.70;37.40;40.50;101064;;;;571489;246;24103;-80
2023/08/11 07:38:14;;;;;;;8.73;1.65;;;41.20;38.40;39.80;101065;;;;571467;248;23094;-79
2023/08/11 07:40:42;;;;;;;6.55;1.77;;;40.50;38.70;39.60;101069;;;;571378;248;23120;-80
2023/08/11 07:43:10;;;;;;;7.82;2.05;;;40.00;38.80;39.30;101069;;;;571615;248;23126;-81
2023/08/11 07:45:39;;;;;;;4.72;1.50;;;39.50;39.50;39.10;101067;;;;571411;247;23088;-80
2023/08/11 07:48:07;;;;;;;4.45;1.62;;;39.80;40.10;39.70;101073;;;;571457;246;24122;-79
2023/08/11 07:50:36;;;;;;;10.18;2.10;;;40.40;39.70;40.30;101073;;;;571510;248;23094;-80
2023/08/11 07:53:05;;;;;;;13.43;2.00;;;41.10;40.10;41.10;101078;;;;571478;248;24246;-81
2023/08/11 07:55:33;;;;;;;3.80;1.60;;;41.30;38.30;41.00;101070;;;;580245;247;23211;-82
2023/08/11 07:58:02;;;;;;;3.78;1.40;;;41.70;38.20;41.70;101075;;;;571407;246;23142;-79
2023/08/11 08:00:30;;;;;;;4.45;1.80;;;41.70;38.20;42.90;101071;;;;571286;248;23150;-83
2023/08/11 08:03:02;;;;;;;6.15;1.73;;;42.90;37.30;44.00;101078;;;;572541;247;23122;-82
2023/08/11 08:05:26;;;;;;;4.00;1.42;;;43.80;36.00;44.90;101072;;;;571986;247;23102;-82
2023/08/11 08:07:54;;;;;;;5.97;2.05;;;44.80;36.40;45.70;101069;;;;566909;247;35201;-84
2023/08/11 08:10:22;;;;;;;5.05;1.80;;;45.80;34.80;44.30;101079;;;;580625;247;23150;-82
2023/08/11 08:12:50;;;;;;;4.62;1.55;;;45.30;34.90;42.90;101083;;;;571505;247;23120;-84
2023/08/11 08:15:17;;;;;;;5.75;1.65;;;44.20;34.90;41.70;101085;;;;577059;247;23095;-83
2023/08/11 08:17:45;;;;;;;2.17;1.40;;;43.10;35.10;40.40;101085;;;;571527;247;23102;-83
2023/08/11 08:20:16;;;;;;;6.65;1.75;;;41.80;36.30;39.50;101090;;;;571279;247;23074;-80
2023/08/11 08:22:47;;;;;;;3.28;1.62;;;40.60;37.30;38.80;101092;;;;574570;245;23189;-82
2023/08/11 08:25:15;;;;;;;2.08;1.40;;;39.60;38.10;38.10;101096;;;;574691;245;23103;-81
2023/08/11 08:27:43;;;;;;;1.40;1.20;;;38.70;38.80;38.50;101099;;;;574948;245;23194;-79
2023/08/11 08:30:11;;;;;;;2.47;1.50;;;38.70;39.70;39.40;101094;;;;572253;246;23109;-81
2023/08/11 08:32:36;;;;;;;2.83;1.60;;;39.40;39.20;40.60;101090;;;;580404;246;24151;-81
2023/08/11 08:35:07;;;;;;;2.87;1.45;;;40.50;38.70;42.20;101094;;;;571750;247;23101;-83
2023/08/11 08:37:32;;;;;;;2.15;1.50;;;42.00;37.00;43.50;101089;;;;570438;248;23131;-81
2023/08/11 08:40:00;;;;;;;1.20;1.10;;;43.40;36.30;44.70;101085;;;;572469;248;23145;-81
2023/08/11 08:42:28;;;;;;;1.70;1.60;;;44.70;35.30;44.40;101092;;;;572322;248;23087;-81
2023/08/11 08:44:56;;;;;;;8.00;1.92;;;45.10;33.80;41.80;101088;;;;581066;243;23093;-82
2023/08/11 08:47:24;;;;;;;4.07;1.60;;;43.40;34.40;39.70;101089;;;;571728;248;23090;-84
2023/08/11 08:49:54;;;;;;;2.47;1.52;;;41.50;36.10;39.50;101084;;;;580048;247;23152;-82
2023/08/11 08:52:20;;;;;;;6.90;1.83;;;40.60;37.90;40.70;101086;;;;571279;248;23108;-82
2023/08/11 08:54:47;;;;;;;4.32;1.52;;;41.20;38.10;41.20;101090;;;;570847;248;23092;-83
2023/08/11 08:57:16;;;;;;;3.53;1.70;;;41.80;37.80;40.70;101091;;;;571405;248;24105;-83
2023/08/11 08:59:44;;;;;;;6.12;1.73;;;41.40;37.50;40.50;101093;;;;579765;245;23092;-83
2023/08/11 09:02:15;;;;;;;6.18;1.75;;;42.10;37.50;41.60;101099;;;;570921;248;24228;-83
2023/08/11 09:04:41;;;;;;;4.30;1.83;;;42.00;37.40;41.80;101096;;;;570891;248;23102;-85
2023/08/11 09:07:08;;;;;;;3.03;1.50;;;42.50;36.40;41.20;101099;;;;570870;248;24144;-84
2023/08/11 09:09:36;;;;;;;2.17;1.50;;;42.20;36.90;41.40;101093;;;;571082;247;23097;-82
2023/08/11 09:12:04;;;;;;;5.60;2.00;;;42.20;36.80;42.70;101094;;;;570905;248;23122;-85
2023/08/11 09:14:32;;;;;;;2.45;1.60;;;43.20;36.70;43.90;101086;;;;572308;247;24166;-86
2023/08/11 09:17:00;;;;;;;2.40;1.48;;;44.40;36.20;45.00;101085;;;;572040;247;23102;-85
2023/08/11 09:19:29;;;;;;;3.12;1.45;;;46.50;34.20;45.70;101085;;;;571687;246;23116;-82
2023/08/11 09:21:57;;;;;;;2.70;1.60;;;46.50;34.10;46.60;101090;;;;571841;247;23106;-82
2023/08/11 09:24:24;;;;;;;2.75;1.70;;;47.40;33.80;47.30;101090;;;;571500;247;23128;-83
2023/08/11 09:26:55;;;;;;;9.95;1.87;;;48.40;34.20;47.40;101092;;;;571540;247;23195;-78
2023/08/11 09:29:20;;;;;;;3.78;1.98;;;48.80;32.40;46.20;101093;;;;576666;247;23082;-80
2023/08/11 09:31:49;;;;;;;4.32;1.67;;;48.10;32.10;44.30;101094;;;;571205;247;23253;-85
2023/08/11 09:34:19;;;;;;;13.88;2.40;;;46.80;32.20;42.10;101104;;;;576524;247;23115;-80
2023/08/11 09:36:44;;;;;;;16.87;2.55;;;44.70;33.00;40.90;101099;;;;571303;247;35292;-81
2023/08/11 09:39:12;;;;;;;7.47;2.47;;;43.10;34.80;39.40;101105;;;;571641;247;23208;-80
2023/08/11 09:41:47;;;;;;;7.65;1.67;;;41.50;35.60;37.70;101094;;;;571339;247;23097;-81
2023/08/11 09:44:23;;;;;;;2.95;1.70;;;38.30;38.60;36.60;101109;;;;571605;247;23104;-83
2023/08/11 09:46:48;;;;;;;5.32;1.60;;;38.20;38.60;37.30;101096;;;;574373;245;23189;-83
2023/08/11 09:49:16;;;;;;;8.05;1.70;;;38.30;39.90;36.70;101096;;;;574577;245;23091;-82
2023/08/11 09:51:44;;;;;;;5.90;1.70;;;37.80;39.10;35.60;101094;;;;574362;245;23105;-81
2023/08/11 09:54:13;;;;;;;10.13;1.60;;;36.90;39.40;34.10;101093;;;;574292;245;24139;-81
2023/08/11 09:56:40;;;;;;;4.57;1.65;;;35.60;40.50;33.90;101090;;;;574127;245;23138;-80
2023/08/11 09:59:14;;;;;;;6.10;1.48;;;34.80;42.70;35.30;101084;;;;576235;245;23152;-81
2023/08/11 10:01:40;;;;;;;7.87;1.80;;;37.70;42.10;37.40;101091;;;;570299;248;23148;-81
2023/08/11 10:04:10;;;;;;;6.82;1.80;;;38.80;39.60;38.10;101085;;;;571115;248;24133;-81
2023/08/11 10:06:36;;;;;;;8.23;1.92;;;38.80;39.50;39.30;101094;;;;580572;244;23094;-80
2023/08/11 10:09:04;;;;;;;13.68;4.03;;;40.10;39.30;41.10;101089;;;;573040;246;23129;-81
2023/08/11 10:11:35;;;;;;;3.55;1.70;;;41.80;37.60;42.10;101091;;;;572500;247;23186;-82
2023/08/11 10:14:03;;;;;;;2.03;1.50;;;43.10;35.80;41.60;101099;;;;570974;247;23145;-83
2023/08/11 10:16:31;;;;;;;8.70;2.08;;;43.20;35.00;41.70;101096;;;;571373;247;23100;-82
2023/08/11 10:18:59;;;;;;;3.83;1.60;;;43.20;35.50;42.50;101095;;;;576568;247;23135;-83
2023/08/11 10:21:26;;;;;;;2.53;1.75;;;43.90;35.80;43.00;101089;;;;571315;247;23106;-82
2023/08/11 10:23:54;;;;;;;13.82;2.25;;;44.50;35.20;42.00;101096;;;;576684;245;23104;-82
2023/08/11 10:26:23;;;;;;;6.60;1.58;;;44.00;34.20;40.00;101088;;;;572904;246;23089;-83
2023/08/11 10:28:53;;;;;;;6.05;1.90;;;42.30;35.00;38.30;101083;;;;572415;246;23108;-80
2023/08/11 10:31:22;;;;;;;5.18;1.52;;;40.50;36.60;37.50;101092;;;;577629;246;23089;-82
2023/08/11 10:33:53;;;;;;;5.43;1.67;;;39.20;39.00;38.00;101084;;;;580857;246;23155;-80
2023/08/11 10:36:18;;;;;;;1.75;1.40;;;39.20;39.00;38.70;101087;;;;571782;246;23123;-81
2023/08/11 10:38:46;;;;;;;11.30;1.85;;;39.70;38.50;39.20;101088;;;;580986;245;23099;-85
2023/08/11 10:41:14;;;;;;;5.45;1.75;;;40.30;38.20;39.10;101090;;;;572134;246;23135;-80
2023/08/11 10:43:41;;;;;;;4.05;1.92;;;40.60;37.60;39.00;101092;;;;571928;246;23104;-80
2023/08/11 10:46:24;;;;;;;7.12;1.52;;;40.50;37.60;38.50;101087;;;;571741;246;24164;-79
2023/08/11 10:48:52;;;;;;;3.12;1.55;;;39.90;38.50;37.40;101085;;;;572346;247;23152;-79
2023/08/11 10:51:35;;;;;;;4.15;1.62;;;38.80;38.70;36.30;101090;;;;573623;247;23104;-79
2023/08/11 10:54:07;;;;;;;3.92;1.62;;;36.10;40.10;34.70;101087;;;;571488;247;23115;-80
2023/08/11 10:56:39;;;;;;;2.20;1.52;;;36.00;40.00;33.70;101088;;;;571010;247;24116;-82
2023/08/11 10:59:17;;;;;;;5.37;1.73;;;34.80;41.50;32.80;101081;;;;576043;245;23130;-78
2023/08/11 11:01:48;;;;;;;4.85;1.73;;;33.70;42.70;32.00;101084;;;;571480;248;23101;-79
2023/08/11 11:04:16;;;;;;;1.80;1.58;;;32.70;44.60;31.40;101078;;;;576836;248;23090;-81
2023/08/11 11:06:44;;;;;;;9.90;1.75;;;32.00;45.80;30.90;101080;;;;576264;248;24126;-80
2023/08/11 11:09:13;;;;;;;4.87;1.52;;;31.40;47.50;30.60;101073;;;;576461;248;23117;-81
2023/08/11 11:11:43;;;;;;;2.83;1.30;;;31.10;49.00;30.40;101074;;;;576388;248;24112;-81
2023/08/11 11:14:11;;;;;;;10.30;1.70;;;30.80;49.60;29.80;101073;;;;579793;245;23176;-79